Time;durP1;ratioP1;P1;durP2;ratioP2;P2;SDS_P1;SDS_P2;PMS_P1;PMS_P2;Temp;Humidity;BMP_temperature;BMP_pressure;BME280_temperature;BME280_humidity;BME280_pressure;Samples;Min_cycle;Max_cycle;Signal;HPM_P1;HPM_P2
2021/03/04 00:00:47;;;;;;;24.70;10.43;;;;;;;;;;5094881;28;20024;-70
2021/03/04 00:03:14;;;;;;;20.40;11.43;;;;;;;;;;5093340;28;20020;-69
2021/03/04 00:05:40;;;;;;;19.40;9.95;;;;;;;;;;5095367;28;20055;-70
2021/03/04 00:08:06;;;;;;;16.63;9.38;;;;;;;;;;5095065;28;20129;-69
2021/03/04 00:10:33;;;;;;;17.50;8.88;;;;;;;;;;5093119;28;20563;-70
2021/03/04 00:13:00;;;;;;;22.13;12.43;;;;;;;;;;5095114;28;20047;-69
2021/03/04 00:15:27;;;;;;;27.42;14.57;;;;;;;;;;5094663;28;20020;-69
2021/03/04 00:17:53;;;;;;;35.30;17.42;;;;;;;;;;5094310;28;20012;-70
2021/03/04 00:20:22;;;;;;;31.30;14.85;;;;;;;;;;5094656;28;20444;-69
2021/03/04 00:22:48;;;;;;;26.90;14.27;;;;;;;;;;5092795;28;20402;-69
2021/03/04 00:25:14;;;;;;;18.67;10.05;;;;;;;;;;5094449;28;20115;-69
2021/03/04 00:27:41;;;;;;;22.25;11.00;;;;;;;;;;5094806;28;20434;-70
2021/03/04 00:30:08;;;;;;;23.17;11.52;;;;;;;;;;5094125;28;20024;-69
2021/03/04 00:32:34;;;;;;;24.08;13.38;;;;;;;;;;5094444;28;20392;-70
2021/03/04 00:35:00;;;;;;;24.77;13.52;;;;;;;;;;5094746;28;20031;-69
2021/03/04 00:37:27;;;;;;;25.63;12.25;;;;;;;;;;5093926;28;20024;-70
2021/03/04 00:39:53;;;;;;;23.10;10.15;;;;;;;;;;5094232;28;20031;-70
2021/03/04 00:42:19;;;;;;;18.15;10.27;;;;;;;;;;5094243;28;20136;-70
2021/03/04 00:44:45;;;;;;;23.20;11.73;;;;;;;;;;5093645;28;20024;-69
2021/03/04 00:47:12;;;;;;;21.67;10.82;;;;;;;;;;5094406;28;20028;-69
2021/03/04 00:49:38;;;;;;;23.83;12.45;;;;;;;;;;5094179;28;20047;-69
2021/03/04 00:52:04;;;;;;;24.05;12.52;;;;;;;;;;5093695;28;20028;-70
2021/03/04 00:54:30;;;;;;;28.10;12.48;;;;;;;;;;5093930;28;20031;-69
2021/03/04 00:56:56;;;;;;;22.33;10.98;;;;;;;;;;5093933;28;20020;-69
2021/03/04 00:59:23;;;;;;;22.23;12.38;;;;;;;;;;5093600;28;20024;-69
2021/03/04 01:01:49;;;;;;;19.40;10.43;;;;;;;;;;5092482;28;20024;-70
2021/03/04 01:04:15;;;;;;;17.98;9.45;;;;;;;;;;5093676;28;20036;-70
2021/03/04 01:06:41;;;;;;;21.23;10.55;;;;;;;;;;5093498;28;20457;-69
2021/03/04 01:09:07;;;;;;;17.52;9.15;;;;;;;;;;5093889;28;20035;-70
2021/03/04 01:11:34;;;;;;;16.00;7.57;;;;;;;;;;5093727;28;20381;-71
2021/03/04 01:14:00;;;;;;;14.30;8.23;;;;;;;;;;5093262;28;20574;-69
2021/03/04 01:16:26;;;;;;;17.80;8.38;;;;;;;;;;5093535;28;20028;-69
2021/03/04 01:18:53;;;;;;;18.65;9.02;;;;;;;;;;5093474;28;20364;-70
2021/03/04 01:21:19;;;;;;;18.80;8.23;;;;;;;;;;5092215;28;20034;-69
2021/03/04 01:23:45;;;;;;;16.92;9.38;;;;;;;;;;5092144;28;20034;-69
2021/03/04 01:26:12;;;;;;;14.75;8.80;;;;;;;;;;5092857;28;20363;-69
2021/03/04 01:28:38;;;;;;;18.52;8.90;;;;;;;;;;5093617;28;20020;-69
2021/03/04 01:31:05;;;;;;;18.55;9.73;;;;;;;;;;5093322;28;20089;-70
2021/03/04 01:33:31;;;;;;;18.40;9.90;;;;;;;;;;5092523;28;20388;-69
2021/03/04 01:35:57;;;;;;;19.33;10.23;;;;;;;;;;5093076;28;20054;-69
2021/03/04 01:38:23;;;;;;;17.88;9.73;;;;;;;;;;5093547;28;20019;-69
2021/03/04 01:40:50;;;;;;;18.13;9.63;;;;;;;;;;5092736;28;20043;-70
2021/03/04 01:43:16;;;;;;;16.50;7.97;;;;;;;;;;5093081;28;20491;-69
2021/03/04 01:45:42;;;;;;;15.77;7.93;;;;;;;;;;5093050;28;20040;-69
2021/03/04 01:48:09;;;;;;;18.95;8.23;;;;;;;;;;5092813;28;20016;-69
2021/03/04 01:50:36;;;;;;;13.55;7.55;;;;;;;;;;5093076;28;20027;-69
2021/03/04 01:53:02;;;;;;;17.35;7.70;;;;;;;;;;5092898;28;20380;-69
2021/03/04 01:55:29;;;;;;;17.67;8.98;;;;;;;;;;5092800;28;20046;-69
2021/03/04 01:57:57;;;;;;;17.33;8.52;;;;;;;;;;5091578;28;20116;-69
2021/03/04 02:00:23;;;;;;;16.63;8.07;;;;;;;;;;5092800;28;20024;-69
2021/03/04 02:02:50;;;;;;;19.17;8.52;;;;;;;;;;5092432;28;20044;-69
2021/03/04 02:05:18;;;;;;;17.70;9.23;;;;;;;;;;5092589;28;20028;-69
2021/03/04 02:07:47;;;;;;;16.85;9.00;;;;;;;;;;5092972;28;20024;-69
2021/03/04 02:10:17;;;;;;;15.77;7.82;;;;;;;;;;5092424;28;20059;-69
2021/03/04 02:12:49;;;;;;;20.10;8.90;;;;;;;;;;5092812;28;20031;-69
2021/03/04 02:15:18;;;;;;;19.93;10.63;;;;;;;;;;5092278;28;20020;-69
2021/03/04 02:17:47;;;;;;;16.55;8.70;;;;;;;;;;5092668;28;20384;-69
2021/03/04 02:20:26;;;;;;;22.13;10.07;;;;;;;;;;5092580;28;20095;-69
2021/03/04 02:22:58;;;;;;;19.52;8.75;;;;;;;;;;5092325;28;20024;-68
2021/03/04 02:25:33;;;;;;;16.02;7.85;;;;;;;;;;5092284;28;20092;-69
2021/03/04 02:28:00;;;;;;;18.23;8.70;;;;;;;;;;5092810;28;20060;-68
2021/03/04 02:30:28;;;;;;;17.63;7.93;;;;;;;;;;5092284;28;20017;-69
2021/03/04 02:33:14;;;;;;;18.65;8.65;;;;;;;;;;5092473;28;20336;-68
2021/03/04 02:35:42;;;;;;;19.73;9.63;;;;;;;;;;5092354;28;20020;-69
2021/03/04 02:38:14;;;;;;;16.17;8.20;;;;;;;;;;5092316;28;20020;-69
2021/03/04 02:40:42;;;;;;;21.73;8.05;;;;;;;;;;5092459;28;20099;-69
2021/03/04 02:43:10;;;;;;;14.60;6.65;;;;;;;;;;5091051;28;20433;-69
2021/03/04 02:45:36;;;;;;;15.57;8.20;;;;;;;;;;5091859;28;20082;-69
2021/03/04 02:48:03;;;;;;;15.60;8.35;;;;;;;;;;5096799;28;20020;-68
2021/03/04 02:50:30;;;;;;;16.98;9.13;;;;;;;;;;5096245;28;20031;-69
2021/03/04 02:52:57;;;;;;;17.83;9.40;;;;;;;;;;5096415;28;20076;-69
2021/03/04 02:55:23;;;;;;;19.05;9.35;;;;;;;;;;5096267;28;20020;-69
2021/03/04 02:57:50;;;;;;;21.13;10.45;;;;;;;;;;5095871;28;20028;-69
2021/03/04 03:00:19;;;;;;;20.05;10.00;;;;;;;;;;5096451;28;20078;-68
2021/03/04 03:02:45;;;;;;;23.30;11.57;;;;;;;;;;5096179;28;20380;-69
2021/03/04 03:05:12;;;;;;;14.82;8.25;;;;;;;;;;5095440;28;20057;-69
2021/03/04 03:07:40;;;;;;;18.83;8.57;;;;;;;;;;5096151;28;20055;-69
2021/03/04 03:10:06;;;;;;;18.55;8.73;;;;;;;;;;5096262;28;20040;-69
2021/03/04 03:12:33;;;;;;;13.75;7.70;;;;;;;;;;5095623;28;20028;-69
2021/03/04 03:15:01;;;;;;;14.60;8.13;;;;;;;;;;5094671;28;20035;-68
2021/03/04 03:17:27;;;;;;;19.92;9.13;;;;;;;;;;5095848;28;20022;-69
2021/03/04 03:19:53;;;;;;;19.58;10.05;;;;;;;;;;5095454;28;20024;-68
2021/03/04 03:22:19;;;;;;;20.05;8.80;;;;;;;;;;5095773;28;20103;-68
2021/03/04 03:24:46;;;;;;;19.70;9.35;;;;;;;;;;5094110;28;20044;-68
2021/03/04 03:27:12;;;;;;;17.20;8.35;;;;;;;;;;5093904;28;20052;-68
2021/03/04 03:29:38;;;;;;;23.83;11.68;;;;;;;;;;5094629;28;20071;-68
2021/03/04 03:32:04;;;;;;;22.73;12.15;;;;;;;;;;5095804;28;20070;-68
2021/03/04 03:34:31;;;;;;;30.83;12.32;;;;;;;;;;5095137;28;20076;-68
2021/03/04 03:36:57;;;;;;;25.00;13.35;;;;;;;;;;5095490;28;20462;-69
2021/03/04 03:39:23;;;;;;;21.38;11.65;;;;;;;;;;5095483;28;20142;-69
2021/03/04 03:41:50;;;;;;;28.25;12.68;;;;;;;;;;5095036;28;20048;-69
2021/03/04 03:44:17;;;;;;;33.90;16.00;;;;;;;;;;5095277;28;20023;-68
2021/03/04 03:46:45;;;;;;;31.88;16.60;;;;;;;;;;5094907;28;20028;-68
2021/03/04 03:49:12;;;;;;;29.67;16.15;;;;;;;;;;5095680;28;20373;-69
2021/03/04 03:51:38;;;;;;;22.80;11.27;;;;;;;;;;5095714;28;20498;-69
2021/03/04 03:54:05;;;;;;;18.40;10.77;;;;;;;;;;5094834;28;20443;-69
2021/03/04 03:56:32;;;;;;;20.20;10.18;;;;;;;;;;5094852;28;20019;-69
2021/03/04 03:58:59;;;;;;;20.05;10.18;;;;;;;;;;5094962;28;20493;-69
2021/03/04 04:01:28;;;;;;;20.40;10.57;;;;;;;;;;5094729;28;20055;-70
2021/03/04 04:03:57;;;;;;;15.18;9.52;;;;;;;;;;5095037;28;20134;-69
2021/03/04 04:06:33;;;;;;;21.77;12.45;;;;;;;;;;5094871;28;20055;-68
2021/03/04 04:08:59;;;;;;;21.73;11.95;;;;;;;;;;5094775;28;20581;-68
2021/03/04 04:11:26;;;;;;;23.75;10.68;;;;;;;;;;5095086;28;20032;-68
2021/03/04 04:13:53;;;;;;;19.17;9.02;;;;;;;;;;5094768;28;20092;-69
2021/03/04 04:16:19;;;;;;;18.92;9.60;;;;;;;;;;5094430;28;20477;-69
2021/03/04 04:18:46;;;;;;;19.63;10.35;;;;;;;;;;5094687;28;20078;-69
2021/03/04 04:21:12;;;;;;;19.88;9.70;;;;;;;;;;5094742;28;20028;-68
2021/03/04 04:23:39;;;;;;;18.02;8.32;;;;;;;;;;5094221;28;20095;-68
2021/03/04 04:26:05;;;;;;;17.27;8.68;;;;;;;;;;5092921;28;20059;-68
2021/03/04 04:28:31;;;;;;;16.35;8.25;;;;;;;;;;5094650;28;20452;-68
2021/03/04 04:30:58;;;;;;;22.73;10.88;;;;;;;;;;5092931;28;20024;-68
2021/03/04 04:33:24;;;;;;;22.55;9.93;;;;;;;;;;5093289;28;20016;-68
2021/03/04 04:35:50;;;;;;;20.80;11.57;;;;;;;;;;5093949;28;20016;-68
2021/03/04 04:38:16;;;;;;;22.75;11.50;;;;;;;;;;5094261;28;20051;-68
2021/03/04 04:40:43;;;;;;;27.15;14.05;;;;;;;;;;5094293;28;20101;-68
2021/03/04 04:43:09;;;;;;;28.42;13.52;;;;;;;;;;5093903;28;20117;-68
2021/03/04 04:45:35;;;;;;;25.77;12.98;;;;;;;;;;5094045;28;20032;-68
2021/03/04 04:48:01;;;;;;;23.88;12.18;;;;;;;;;;5094739;28;20114;-68
2021/03/04 04:50:28;;;;;;;23.52;10.73;;;;;;;;;;5094200;28;20024;-68
2021/03/04 04:52:54;;;;;;;24.70;11.70;;;;;;;;;;5092961;28;20016;-69
2021/03/04 04:55:20;;;;;;;27.40;11.88;;;;;;;;;;5094045;28;20048;-68
2021/03/04 04:57:46;;;;;;;26.63;11.93;;;;;;;;;;5093643;28;20442;-68
2021/03/04 05:00:13;;;;;;;29.08;13.20;;;;;;;;;;5093958;28;20020;-68
2021/03/04 05:02:39;;;;;;;26.20;13.65;;;;;;;;;;5093851;28;20024;-68
2021/03/04 05:05:06;;;;;;;24.83;13.23;;;;;;;;;;5093481;28;20391;-68
2021/03/04 05:07:32;;;;;;;31.83;19.35;;;;;;;;;;5093782;28;20070;-68
2021/03/04 05:09:58;;;;;;;35.30;16.85;;;;;;;;;;5091719;28;20115;-69
2021/03/04 05:12:25;;;;;;;25.85;12.75;;;;;;;;;;5093549;28;20051;-69
2021/03/04 05:14:52;;;;;;;39.00;18.20;;;;;;;;;;5093979;28;20020;-70
2021/03/04 05:17:19;;;;;;;32.58;17.60;;;;;;;;;;5093456;28;20062;-69
2021/03/04 05:19:45;;;;;;;26.88;12.88;;;;;;;;;;5091814;28;20028;-69
2021/03/04 05:22:11;;;;;;;35.53;19.05;;;;;;;;;;5093534;28;20502;-69
2021/03/04 05:24:37;;;;;;;33.83;17.40;;;;;;;;;;5093242;28;20055;-69
2021/03/04 05:27:04;;;;;;;28.67;16.88;;;;;;;;;;5093115;28;20021;-69
2021/03/04 05:29:30;;;;;;;26.98;14.80;;;;;;;;;;5092053;28;20028;-70
2021/03/04 05:31:56;;;;;;;29.77;15.07;;;;;;;;;;5093608;28;20020;-69
2021/03/04 05:34:22;;;;;;;25.33;11.95;;;;;;;;;;5092953;28;20081;-69
2021/03/04 05:36:49;;;;;;;31.58;13.90;;;;;;;;;;5093268;28;20384;-70
2021/03/04 05:39:15;;;;;;;31.60;14.38;;;;;;;;;;5092757;28;20024;-69
2021/03/04 05:41:43;;;;;;;28.35;15.80;;;;;;;;;;5093203;28;20027;-70
2021/03/04 05:44:09;;;;;;;27.92;13.98;;;;;;;;;;5093094;28;20024;-70
2021/03/04 05:46:36;;;;;;;26.08;13.10;;;;;;;;;;5092654;28;20028;-70
2021/03/04 05:49:03;;;;;;;26.65;14.48;;;;;;;;;;5093011;28;20052;-70
2021/03/04 05:51:32;;;;;;;23.73;13.45;;;;;;;;;;5093200;28;20099;-69
2021/03/04 05:53:59;;;;;;;27.60;13.50;;;;;;;;;;5092688;28;20021;-69
2021/03/04 05:56:26;;;;;;;25.85;12.13;;;;;;;;;;5092887;28;20027;-69
2021/03/04 05:58:53;;;;;;;31.25;16.23;;;;;;;;;;5092831;28;20020;-69
2021/03/04 06:01:19;;;;;;;33.20;15.77;;;;;;;;;;5092534;28;20016;-69
2021/03/04 06:03:46;;;;;;;27.13;13.38;;;;;;;;;;5092788;28;20384;-69
2021/03/04 06:06:13;;;;;;;22.10;11.73;;;;;;;;;;5095387;28;20039;-69
2021/03/04 06:08:39;;;;;;;22.50;11.13;;;;;;;;;;5093086;28;20117;-69
2021/03/04 06:11:06;;;;;;;24.58;12.88;;;;;;;;;;5102405;28;20028;-68
2021/03/04 06:13:32;;;;;;;22.00;11.52;;;;;;;;;;5092038;28;20030;-69
2021/03/04 06:16:00;;;;;;;22.65;14.25;;;;;;;;;;5091836;28;20488;-69
2021/03/04 06:18:38;;;;;;;32.63;17.27;;;;;;;;;;5089930;28;20361;-69
2021/03/04 06:21:04;;;;;;;33.22;16.63;;;;;;;;;;5090968;28;20481;-69
2021/03/04 06:23:31;;;;;;;30.45;17.00;;;;;;;;;;5091632;28;20028;-69
2021/03/04 06:25:58;;;;;;;36.45;18.95;;;;;;;;;;5091146;28;20397;-69
2021/03/04 06:28:31;;;;;;;32.22;17.38;;;;;;;;;;5091829;28;20020;-69
2021/03/04 06:30:57;;;;;;;;;;;;;;;;;;5095602;28;20096;-68
2021/03/04 06:33:23;;;;;;;24.30;12.23;;;;;;;;;;5091961;28;20336;-69
2021/03/04 06:35:50;;;;;;;26.13;12.63;;;;;;;;;;5091439;28;20100;-71
2021/03/04 06:38:20;;;;;;;28.38;15.95;;;;;;;;;;5091861;28;20035;-71
2021/03/04 06:40:47;;;;;;;32.10;17.58;;;;;;;;;;5091528;28;20028;-70
2021/03/04 06:43:20;;;;;;;38.05;18.88;;;;;;;;;;5091281;28;20040;-70
2021/03/04 06:45:47;;;;;;;32.58;16.83;;;;;;;;;;5091440;28;20111;-77
2021/03/04 06:48:17;;;;;;;23.90;14.02;;;;;;;;;;5089471;28;20549;-78
2021/03/04 06:50:50;;;;;;;23.35;12.90;;;;;;;;;;5091349;28;20099;-75
2021/03/04 06:53:19;;;;;;;36.75;17.42;;;;;;;;;;5090157;28;20020;-74
2021/03/04 06:55:56;;;;;;;27.17;13.90;;;;;;;;;;5091319;28;20028;-75
2021/03/04 06:58:26;;;;;;;32.38;17.27;;;;;;;;;;5091220;28;20095;-75
2021/03/04 07:01:11;;;;;;;34.25;18.52;;;;;;;;;;5083025;28;20365;-74
2021/03/04 07:03:47;;;;;;;35.13;18.00;;;;;;;;;;5086764;28;20082;-76
2021/03/04 07:06:15;;;;;;;28.83;16.30;;;;;;;;;;5089373;28;20047;-78
2021/03/04 07:08:43;;;;;;;29.10;16.85;;;;;;;;;;5096928;28;20027;-78
2021/03/04 07:11:14;;;;;;;24.63;14.55;;;;;;;;;;5107470;28;20180;-76
2021/03/04 07:13:41;;;;;;;30.63;17.00;;;;;;;;;;5109929;28;20020;-77
2021/03/04 07:16:09;;;;;;;25.02;14.98;;;;;;;;;;5108619;28;20024;-75
2021/03/04 07:18:39;;;;;;;23.10;13.43;;;;;;;;;;5109806;28;20036;-75
2021/03/04 07:21:13;;;;;;;26.38;15.07;;;;;;;;;;5109028;28;20023;-74
2021/03/04 07:23:40;;;;;;;23.30;12.55;;;;;;;;;;5110068;28;20146;-76
2021/03/04 07:26:08;;;;;;;31.25;17.63;;;;;;;;;;5108207;28;20075;-76
2021/03/04 07:28:35;;;;;;;25.38;14.40;;;;;;;;;;5111236;28;20043;-81
2021/03/04 07:31:02;;;;;;;26.67;15.25;;;;;;;;;;5111269;28;20027;-76
2021/03/04 07:33:29;;;;;;;35.13;20.38;;;;;;;;;;5112558;28;20076;-77
2021/03/04 07:35:56;;;;;;;22.17;12.25;;;;;;;;;;5093514;28;20039;-76
2021/03/04 07:38:30;;;;;;;69.15;35.58;;;;;;;;;;5093853;28;20024;-70
2021/03/04 07:41:12;;;;;;;23.48;12.93;;;;;;;;;;5093358;28;20063;-70
2021/03/04 07:43:45;;;;;;;27.95;13.82;;;;;;;;;;5092614;28;20074;-71
2021/03/04 07:46:11;;;;;;;35.42;19.08;;;;;;;;;;5093633;28;20040;-70
2021/03/04 07:48:47;;;;;;;28.42;14.27;;;;;;;;;;5094739;28;20024;-71
2021/03/04 07:51:14;;;;;;;21.63;12.57;;;;;;;;;;5094718;28;20024;-72
2021/03/04 07:53:43;;;;;;;19.85;10.98;;;;;;;;;;5089740;28;20020;-71
2021/03/04 07:56:10;;;;;;;18.50;10.40;;;;;;;;;;5091473;28;20031;-73
2021/03/04 07:58:39;;;;;;;33.45;20.65;;;;;;;;;;5105205;28;20107;-73
2021/03/04 08:01:12;;;;;;;29.92;16.02;;;;;;;;;;5097419;28;20032;-72
2021/03/04 08:03:45;;;;;;;24.52;13.23;;;;;;;;;;5092204;28;20107;-72
2021/03/04 08:06:11;;;;;;;;;;;;;;;;;;5093114;28;20043;-73
2021/03/04 08:08:38;;;;;;;24.30;12.20;;;;;;;;;;5092426;28;19904;-72
2021/03/04 08:11:04;;;;;;;23.55;11.10;;;;;;;;;;5093668;28;20073;-74
2021/03/04 08:13:35;;;;;;;28.80;15.88;;;;;;;;;;5093001;28;20048;-73
2021/03/04 08:16:02;;;;;;;22.23;10.15;;;;;;;;;;5093186;28;20039;-73
2021/03/04 08:18:28;;;;;;;28.15;14.18;;;;;;;;;;5093769;28;20016;-74
2021/03/04 08:21:05;;;;;;;23.27;12.25;;;;;;;;;;5093264;28;20550;-72
2021/03/04 08:23:31;;;;;;;26.00;11.90;;;;;;;;;;5093278;28;20099;-72
2021/03/04 08:25:59;;;;;;;18.60;9.18;;;;;;;;;;5092998;28;20072;-73
2021/03/04 08:28:29;;;;;;;20.42;9.57;;;;;;;;;;5093289;28;20016;-72
2021/03/04 08:30:56;;;;;;;20.50;11.13;;;;;;;;;;5092230;28;20107;-72
2021/03/04 08:33:22;;;;;;;14.93;8.05;;;;;;;;;;5091919;28;20031;-74
2021/03/04 08:35:50;;;;;;;20.50;11.40;;;;;;;;;;5091730;28;20052;-72
2021/03/04 08:38:18;;;;;;;19.33;10.13;;;;;;;;;;5093326;28;20040;-72
2021/03/04 08:40:45;;;;;;;17.73;9.85;;;;;;;;;;5091923;28;20035;-70
2021/03/04 08:43:12;;;;;;;20.80;11.82;;;;;;;;;;5091292;28;20031;-72
2021/03/04 08:45:39;;;;;;;13.70;7.55;;;;;;;;;;5093008;28;20043;-71
2021/03/04 08:48:06;;;;;;;16.02;8.25;;;;;;;;;;5093107;28;20020;-71
2021/03/04 08:50:35;;;;;;;16.48;8.90;;;;;;;;;;5092337;28;20047;-70
2021/03/04 08:53:06;;;;;;;21.30;9.02;;;;;;;;;;5092809;28;20028;-73
2021/03/04 08:56:36;;;;;;;15.02;7.35;;;;;;;;;;5086938;27;20531;-68
2021/03/04 09:01:13;;;;;;;15.57;7.88;;;;;;;;;;5067514;28;20769;-71
2021/03/04 09:03:43;;;;;;;21.05;10.40;;;;;;;;;;5068314;28;20516;-73
2021/03/04 09:06:16;;;;;;;24.40;13.77;;;;;;;;;;5067233;28;20094;-72
2021/03/04 09:08:44;;;;;;;18.83;10.07;;;;;;;;;;5066883;28;20591;-70
2021/03/04 09:11:22;;;;;;;15.63;8.50;;;;;;;;;;5066415;28;20071;-70
2021/03/04 09:15:43;;;;;;;16.00;8.13;;;;;;;;;;5066594;28;20375;-72
2021/03/04 09:18:10;;;;;;;16.30;8.75;;;;;;;;;;5060142;28;20060;-73
2021/03/04 09:22:13;;;;;;;18.50;8.52;;;;;;;;;;5068276;28;20383;-72
2021/03/04 09:24:55;;;;;;;17.80;8.55;;;;;;;;;;5067519;28;20383;-76
2021/03/04 09:29:48;;;;;;;14.60;7.55;;;;;;;;;;5108770;27;20376;-72
2021/03/04 09:32:14;;;;;;;16.08;8.30;;;;;;;;;;5094501;28;20028;-71
2021/03/04 09:34:44;;;;;;;15.27;8.00;;;;;;;;;;5105646;28;20072;-71
2021/03/04 09:37:12;;;;;;;17.83;8.60;;;;;;;;;;5089456;28;20384;-72
2021/03/04 09:39:40;;;;;;;12.35;6.97;;;;;;;;;;5090015;28;20115;-68
2021/03/04 09:42:06;;;;;;;12.02;6.57;;;;;;;;;;5107499;28;20028;-69
2021/03/04 09:46:30;;;;;;;16.50;8.10;;;;;;;;;;5068009;28;20379;-71
2021/03/04 09:49:17;;;;;;;14.55;7.65;;;;;;;;;;5067802;28;20032;-69
2021/03/04 09:52:21;;;;;;;12.40;7.38;;;;;;;;;;5067017;28;20733;-68
2021/03/04 09:54:47;;;;;;;18.13;8.75;;;;;;;;;;5067393;28;20051;-70
2021/03/04 09:57:16;;;;;;;14.00;7.45;;;;;;;;;;5067301;28;20096;-67
2021/03/04 09:59:53;;;;;;;13.38;6.45;;;;;;;;;;5066943;28;20024;-69
2021/03/04 10:02:26;;;;;;;10.05;5.15;;;;;;;;;;5067216;28;20043;-70
2021/03/04 10:04:53;;;;;;;14.10;7.68;;;;;;;;;;5048848;28;20021;-72
2021/03/04 10:07:22;;;;;;;11.48;6.22;;;;;;;;;;5064228;28;20426;-71
2021/03/04 10:09:48;;;;;;;14.25;8.07;;;;;;;;;;5067876;28;20020;-69
2021/03/04 10:14:10;;;;;;;14.95;6.88;;;;;;;;;;5128202;27;20383;-69
2021/03/04 10:16:36;;;;;;;13.20;6.65;;;;;;;;;;5128824;28;20510;-69
2021/03/04 10:19:02;;;;;;;12.80;6.03;;;;;;;;;;5126423;28;20114;-68
2021/03/04 10:21:29;;;;;;;11.23;5.72;;;;;;;;;;5125765;28;20019;-68
2021/03/04 10:23:55;;;;;;;13.90;6.60;;;;;;;;;;5127222;28;20420;-67
2021/03/04 10:26:21;;;;;;;10.50;5.70;;;;;;;;;;5127084;28;20038;-68
2021/03/04 10:28:48;;;;;;;11.45;6.97;;;;;;;;;;5127998;28;20019;-66
2021/03/04 10:31:14;;;;;;;13.90;6.55;;;;;;;;;;5127157;28;20068;-67
2021/03/04 10:33:40;;;;;;;10.23;6.30;;;;;;;;;;5127362;28;20035;-67
2021/03/04 10:36:06;;;;;;;12.50;6.70;;;;;;;;;;5127397;28;20027;-67
2021/03/04 10:38:32;;;;;;;12.73;5.82;;;;;;;;;;5128489;28;20035;-68
2021/03/04 10:41:23;;;;;;;10.40;6.85;;;;;;;;;;5068032;28;20387;-70
2021/03/04 10:43:49;;;;;;;11.02;6.38;;;;;;;;;;5056230;28;20025;-68
2021/03/04 10:48:28;;;;;;;10.50;5.22;;;;;;;;;;5103953;27;20450;-67
2021/03/04 10:50:54;;;;;;;11.48;5.97;;;;;;;;;;5105643;28;20028;-68
2021/03/04 10:53:20;;;;;;;9.88;5.10;;;;;;;;;;5109997;28;20035;-69
2021/03/04 10:55:46;;;;;;;8.98;5.32;;;;;;;;;;5108344;28;20019;-70
2021/03/04 10:58:57;;;;;;;16.25;5.90;;;;;;;;;;5109823;27;20434;-70
2021/03/04 11:01:24;;;;;;;10.60;6.07;;;;;;;;;;5110113;28;20028;-70
2021/03/04 11:04:22;;;;;;;15.50;6.82;;;;;;;;;;5069059;28;20437;-69
2021/03/04 11:06:48;;;;;;;15.25;7.68;;;;;;;;;;5069554;28;20032;-69
2021/03/04 11:09:14;;;;;;;19.00;9.98;;;;;;;;;;5069757;28;20029;-68
2021/03/04 11:11:41;;;;;;;15.00;8.93;;;;;;;;;;5068984;28;20429;-67
2021/03/04 11:14:07;;;;;;;13.38;7.20;;;;;;;;;;5068049;28;20025;-68
2021/03/04 11:16:33;;;;;;;13.05;7.43;;;;;;;;;;5069251;28;20028;-68
2021/03/04 11:18:59;;;;;;;14.38;8.20;;;;;;;;;;5068925;28;20016;-69
2021/03/04 11:21:25;;;;;;;17.88;7.95;;;;;;;;;;5069125;28;20044;-68
2021/03/04 11:25:20;;;;;;;18.13;8.93;;;;;;;;;;5069258;28;20748;-69
2021/03/04 11:27:46;;;;;;;15.25;8.02;;;;;;;;;;5069837;28;20033;-70
2021/03/04 11:30:12;;;;;;;15.82;6.95;;;;;;;;;;5069646;28;20025;-70
2021/03/04 11:32:38;;;;;;;16.52;8.05;;;;;;;;;;5067847;28;20021;-70
2021/03/04 11:36:13;;;;;;;13.23;7.90;;;;;;;;;;5130495;27;20448;-72
2021/03/04 11:38:39;;;;;;;13.80;7.68;;;;;;;;;;5130287;28;20422;-70
2021/03/04 11:41:06;;;;;;;15.63;8.15;;;;;;;;;;5130612;28;20470;-70
2021/03/04 11:43:32;;;;;;;14.80;7.35;;;;;;;;;;5129404;28;20027;-69
2021/03/04 11:45:58;;;;;;;11.85;4.97;;;;;;;;;;5130240;28;20030;-69
2021/03/04 11:48:24;;;;;;;9.18;5.70;;;;;;;;;;5130433;28;20506;-71
2021/03/04 11:50:50;;;;;;;13.90;6.55;;;;;;;;;;5130544;28;20031;-71
2021/03/04 11:53:17;;;;;;;13.55;7.13;;;;;;;;;;5129697;28;20022;-71
2021/03/04 11:57:09;;;;;;;12.15;7.72;;;;;;;;;;5110122;27;20801;-69
2021/03/04 11:59:36;;;;;;;14.73;7.97;;;;;;;;;;5109058;28;20062;-68
2021/03/04 12:02:02;;;;;;;12.50;6.68;;;;;;;;;;5100372;28;20503;-67
2021/03/04 12:04:29;;;;;;;11.90;6.20;;;;;;;;;;5109875;28;20031;-69
2021/03/04 12:06:55;;;;;;;11.60;5.68;;;;;;;;;;5109759;28;20023;-66
2021/03/04 12:09:21;;;;;;;15.52;8.15;;;;;;;;;;5110073;28;20020;-70
2021/03/04 12:11:48;;;;;;;12.27;6.05;;;;;;;;;;5108667;28;20028;-69
2021/03/04 12:14:15;;;;;;;9.43;4.85;;;;;;;;;;5109253;28;20490;-67
2021/03/04 12:16:47;;;;;;;12.38;6.35;;;;;;;;;;5109848;28;20043;-66
2021/03/04 12:19:14;;;;;;;;;;;;;;;;;;5110559;28;20077;-67
2021/03/04 12:21:40;;;;;;;15.57;8.05;;;;;;;;;;5108175;28;20002;-66
2021/03/04 12:24:07;;;;;;;12.10;6.88;;;;;;;;;;5108240;28;20023;-67
2021/03/04 12:26:33;;;;;;;12.52;7.68;;;;;;;;;;5109775;28;20486;-67
2021/03/04 12:28:59;;;;;;;11.68;6.68;;;;;;;;;;5108081;28;20028;-67
2021/03/04 12:31:25;;;;;;;13.90;6.75;;;;;;;;;;5109714;28;20027;-67
2021/03/04 12:33:52;;;;;;;11.90;5.30;;;;;;;;;;5109398;28;20098;-68
2021/03/04 12:36:18;;;;;;;13.27;6.13;;;;;;;;;;5109024;28;20031;-69
2021/03/04 12:38:44;;;;;;;13.25;6.57;;;;;;;;;;5109294;28;20482;-67
2021/03/04 12:41:10;;;;;;;17.83;7.93;;;;;;;;;;5107655;28;20031;-68
2021/03/04 12:43:37;;;;;;;9.90;5.32;;;;;;;;;;5109399;28;20023;-69
2021/03/04 12:46:03;;;;;;;11.02;5.95;;;;;;;;;;5109212;28;20028;-67
2021/03/04 12:48:30;;;;;;;9.55;5.15;;;;;;;;;;5108954;28;20019;-69
2021/03/04 12:50:56;;;;;;;7.82;4.55;;;;;;;;;;5109256;28;20023;-70
2021/03/04 12:53:22;;;;;;;9.45;5.25;;;;;;;;;;5109184;28;20073;-67
2021/03/04 12:55:48;;;;;;;12.60;5.30;;;;;;;;;;5108145;28;20496;-66
2021/03/04 12:58:15;;;;;;;7.82;4.70;;;;;;;;;;5105757;28;20077;-66
2021/03/04 13:00:42;;;;;;;9.48;4.93;;;;;;;;;;5107182;28;20016;-66
2021/03/04 13:03:09;;;;;;;10.80;4.88;;;;;;;;;;5107261;28;20031;-71
2021/03/04 13:05:36;;;;;;;7.95;4.30;;;;;;;;;;5107699;28;20027;-67
2021/03/04 13:08:03;;;;;;;7.90;4.05;;;;;;;;;;5097531;28;20020;-67
2021/03/04 13:10:31;;;;;;;7.07;4.13;;;;;;;;;;5092713;28;20030;-67
2021/03/04 13:12:57;;;;;;;9.65;4.20;;;;;;;;;;5094235;28;20024;-67
2021/03/04 13:15:23;;;;;;;10.02;5.18;;;;;;;;;;5094886;28;20085;-70
2021/03/04 13:17:50;;;;;;;8.48;4.20;;;;;;;;;;5094126;28;20102;-67
2021/03/04 13:20:16;;;;;;;8.05;4.35;;;;;;;;;;5093767;28;20081;-67
2021/03/04 13:22:42;;;;;;;8.52;4.30;;;;;;;;;;5094017;28;20028;-68
2021/03/04 13:25:08;;;;;;;7.90;4.53;;;;;;;;;;5094839;28;20031;-68
2021/03/04 13:27:35;;;;;;;9.95;5.07;;;;;;;;;;5093835;28;20020;-69
2021/03/04 13:30:01;;;;;;;7.65;4.10;;;;;;;;;;5093612;28;20035;-67
2021/03/04 13:32:27;;;;;;;8.77;4.15;;;;;;;;;;5094192;28;20105;-67
2021/03/04 13:34:53;;;;;;;7.47;3.95;;;;;;;;;;5094079;28;20020;-69
2021/03/04 13:37:19;;;;;;;11.02;5.03;;;;;;;;;;5094849;28;20520;-68
2021/03/04 13:39:46;;;;;;;9.80;5.38;;;;;;;;;;5094881;28;20410;-68
2021/03/04 13:42:13;;;;;;;10.75;4.53;;;;;;;;;;5094779;28;20024;-68
2021/03/04 13:44:39;;;;;;;9.45;3.90;;;;;;;;;;5094477;28;20051;-68
2021/03/04 13:47:05;;;;;;;7.13;3.70;;;;;;;;;;5095213;28;20028;-68
2021/03/04 13:49:31;;;;;;;7.75;3.38;;;;;;;;;;5093415;28;20020;-68
2021/03/04 13:51:58;;;;;;;7.65;3.88;;;;;;;;;;5094387;28;20387;-68
2021/03/04 13:54:24;;;;;;;10.35;4.40;;;;;;;;;;5094461;28;20016;-68
2021/03/04 13:56:50;;;;;;;7.68;4.38;;;;;;;;;;5094210;28;20048;-67
2021/03/04 13:59:16;;;;;;;6.00;3.50;;;;;;;;;;5094067;28;20488;-68
2021/03/04 14:01:43;;;;;;;8.18;4.80;;;;;;;;;;5094419;28;20487;-68
2021/03/04 14:04:09;;;;;;;9.23;3.78;;;;;;;;;;5094488;28;20422;-68
2021/03/04 14:06:35;;;;;;;8.10;4.28;;;;;;;;;;5094225;28;20487;-68
2021/03/04 14:09:02;;;;;;;16.10;7.80;;;;;;;;;;5094346;28;20068;-68
2021/03/04 14:11:28;;;;;;;7.95;4.25;;;;;;;;;;5094161;28;20109;-68
2021/03/04 14:13:54;;;;;;;8.80;3.80;;;;;;;;;;5093937;28;20016;-68
2021/03/04 14:16:21;;;;;;;9.52;4.47;;;;;;;;;;5092688;28;20028;-68
2021/03/04 14:18:47;;;;;;;11.30;6.35;;;;;;;;;;5093164;28;20020;-68
2021/03/04 14:21:13;;;;;;;6.43;3.30;;;;;;;;;;5093721;28;20028;-68
2021/03/04 14:23:39;;;;;;;6.68;3.70;;;;;;;;;;5094292;28;20028;-68
2021/03/04 14:26:05;;;;;;;7.43;3.83;;;;;;;;;;5093947;28;20016;-67
2021/03/04 14:28:32;;;;;;;7.90;3.53;;;;;;;;;;5093605;28;20020;-68
2021/03/04 14:30:58;;;;;;;7.43;4.00;;;;;;;;;;5092446;28;20537;-67
2021/03/04 14:33:24;;;;;;;10.00;3.88;;;;;;;;;;5093409;28;20024;-66
2021/03/04 14:35:50;;;;;;;10.85;5.78;;;;;;;;;;5093264;28;20103;-68
2021/03/04 14:38:17;;;;;;;10.45;4.75;;;;;;;;;;5093638;28;20460;-68
2021/03/04 14:40:45;;;;;;;9.43;4.95;;;;;;;;;;5093412;28;20039;-67
2021/03/04 14:43:11;;;;;;;10.02;4.25;;;;;;;;;;5093622;28;20095;-67
2021/03/04 14:45:37;;;;;;;8.50;4.55;;;;;;;;;;5093727;28;20031;-66
2021/03/04 14:48:03;;;;;;;10.07;5.07;;;;;;;;;;5093161;28;20016;-66